sensor_id;sensor_type;location;lat;lon;timestamp;pressure;altitude;pressure_sealevel;temperature;humidity
66273;BME280;58450;52.150;4.466;2022-11-18T00:01:30;99326.41;;;9.65;100.00
66273;BME280;58450;52.150;4.466;2022-11-18T00:03:58;99326.03;;;9.61;100.00
66273;BME280;58450;52.150;4.466;2022-11-18T00:06:27;99330.56;;;9.61;100.00
66273;BME280;58450;52.150;4.466;2022-11-18T00:08:57;99331.59;;;9.60;100.00
66273;BME280;58450;52.150;4.466;2022-11-18T00:11:26;99338.63;;;9.61;100.00
66273;BME280;58450;52.150;4.466;2022-11-18T00:14:14;99343.63;;;9.57;100.00
66273;BME280;58450;52.150;4.466;2022-11-18T00:16:49;99352.50;;;9.58;100.00
66273;BME280;58450;52.150;4.466;2022-11-18T00:19:20;99350.25;;;9.55;100.00
66273;BME280;58450;52.150;4.466;2022-11-18T00:21:50;99360.81;;;9.50;100.00
66273;BME280;58450;52.150;4.466;2022-11-18T00:24:18;99357.44;;;9.61;100.00
66273;BME280;58450;52.150;4.466;2022-11-18T00:26:46;99358.25;;;9.61;100.00
66273;BME280;58450;52.150;4.466;2022-11-18T00:29:15;99362.03;;;9.54;100.00
66273;BME280;58450;52.150;4.466;2022-11-18T00:31:43;99375.50;;;9.47;100.00
66273;BME280;58450;52.150;4.466;2022-11-18T00:34:12;99388.25;;;9.52;100.00
66273;BME280;58450;52.150;4.466;2022-11-18T00:36:42;99381.91;;;9.46;100.00
66273;BME280;58450;52.150;4.466;2022-11-18T00:39:11;99384.00;;;9.44;100.00
66273;BME280;58450;52.150;4.466;2022-11-18T00:41:41;99380.03;;;9.46;100.00
66273;BME280;58450;52.150;4.466;2022-11-18T00:44:28;99398.63;;;9.48;100.00
66273;BME280;58450;52.150;4.466;2022-11-18T00:46:56;99398.84;;;9.46;100.00
66273;BME280;58450;52.150;4.466;2022-11-18T00:49:24;99405.06;;;9.40;100.00
66273;BME280;58450;52.150;4.466;2022-11-18T00:51:51;99402.19;;;9.35;100.00
66273;BME280;58450;52.150;4.466;2022-11-18T00:54:19;99409.81;;;9.38;100.00
66273;BME280;58450;52.150;4.466;2022-11-18T00:56:46;99416.28;;;9.30;100.00
66273;BME280;58450;52.150;4.466;2022-11-18T00:59:14;99421.81;;;9.36;100.00
66273;BME280;58450;52.150;4.466;2022-11-18T01:01:42;99424.72;;;9.34;100.00
66273;BME280;58450;52.150;4.466;2022-11-18T01:04:10;99419.78;;;9.31;100.00
66273;BME280;58450;52.150;4.466;2022-11-18T01:06:38;99426.63;;;9.27;100.00
66273;BME280;58450;52.150;4.466;2022-11-18T01:09:06;99429.91;;;9.29;100.00
66273;BME280;58450;52.150;4.466;2022-11-18T01:11:33;99430.50;;;9.31;100.00
66273;BME280;58450;52.150;4.466;2022-11-18T01:14:18;99440.06;;;9.27;100.00
66273;BME280;58450;52.150;4.466;2022-11-18T01:16:47;99434.69;;;9.27;100.00
66273;BME280;58450;52.150;4.466;2022-11-18T01:19:16;99436.91;;;9.30;100.00
66273;BME280;58450;52.150;4.466;2022-11-18T01:21:43;99435.72;;;9.19;100.00
66273;BME280;58450;52.150;4.466;2022-11-18T01:24:11;99446.88;;;9.23;100.00
66273;BME280;58450;52.150;4.466;2022-11-18T01:26:41;99450.38;;;9.23;100.00
66273;BME280;58450;52.150;4.466;2022-11-18T01:29:08;99457.59;;;9.29;100.00
66273;BME280;58450;52.150;4.466;2022-11-18T01:31:37;99452.59;;;9.33;100.00
66273;BME280;58450;52.150;4.466;2022-11-18T01:34:06;99456.97;;;9.27;100.00
66273;BME280;58450;52.150;4.466;2022-11-18T01:36:34;99463.56;;;9.31;100.00
66273;BME280;58450;52.150;4.466;2022-11-18T01:39:01;99462.72;;;9.31;100.00
66273;BME280;58450;52.150;4.466;2022-11-18T01:41:30;99470.78;;;9.31;100.00
66273;BME280;58450;52.150;4.466;2022-11-18T01:43:59;99464.16;;;9.34;100.00
66273;BME280;58450;52.150;4.466;2022-11-18T01:46:30;99475.09;;;9.32;100.00
66273;BME280;58450;52.150;4.466;2022-11-18T01:49:02;99472.28;;;9.27;100.00
66273;BME280;58450;52.150;4.466;2022-11-18T01:51:38;99472.69;;;9.24;100.00
66273;BME280;58450;52.150;4.466;2022-11-18T01:54:17;99482.13;;;9.33;100.00
66273;BME280;58450;52.150;4.466;2022-11-18T01:56:51;99476.00;;;9.26;100.00
66273;BME280;58450;52.150;4.466;2022-11-18T01:59:25;99484.47;;;9.23;100.00
66273;BME280;58450;52.150;4.466;2022-11-18T02:01:56;99481.78;;;9.23;100.00
66273;BME280;58450;52.150;4.466;2022-11-18T02:04:28;99482.59;;;9.23;100.00
66273;BME280;58450;52.150;4.466;2022-11-18T02:06:56;99485.50;;;9.22;100.00
66273;BME280;58450;52.150;4.466;2022-11-18T02:09:24;99490.03;;;9.21;100.00
66273;BME280;58450;52.150;4.466;2022-11-18T02:11:51;99490.44;;;9.18;100.00
66273;BME280;58450;52.150;4.466;2022-11-18T02:14:22;99509.03;;;9.20;100.00
66273;BME280;58450;52.150;4.466;2022-11-18T02:17:02;99498.94;;;9.15;100.00
66273;BME280;58450;52.150;4.466;2022-11-18T02:19:54;99505.31;;;9.14;100.00
66273;BME280;58450;52.150;4.466;2022-11-18T02:26:02;99515.44;;;9.12;100.00
66273;BME280;58450;52.150;4.466;2022-11-18T02:28:57;99519.59;;;9.08;100.00
66273;BME280;58450;52.150;4.466;2022-11-18T02:31:33;99523.69;;;9.17;100.00
66273;BME280;58450;52.150;4.466;2022-11-18T02:34:15;99524.34;;;9.06;100.00
66273;BME280;58450;52.150;4.466;2022-11-18T02:36:54;99522.28;;;9.14;100.00
66273;BME280;58450;52.150;4.466;2022-11-18T02:39:29;99525.97;;;9.07;100.00
66273;BME280;58450;52.150;4.466;2022-11-18T02:42:04;99529.72;;;9.06;100.00
66273;BME280;58450;52.150;4.466;2022-11-18T02:44:39;99533.63;;;8.96;100.00
66273;BME280;58450;52.150;4.466;2022-11-18T02:47:12;99539.63;;;9.05;100.00
66273;BME280;58450;52.150;4.466;2022-11-18T02:49:45;99528.28;;;8.90;100.00
66273;BME280;58450;52.150;4.466;2022-11-18T02:52:17;99531.41;;;8.86;100.00
66273;BME280;58450;52.150;4.466;2022-11-18T02:54:48;99529.31;;;8.95;100.00
66273;BME280;58450;52.150;4.466;2022-11-18T02:57:18;99531.41;;;8.86;100.00
66273;BME280;58450;52.150;4.466;2022-11-18T02:59:50;99534.06;;;8.93;100.00
66273;BME280;58450;52.150;4.466;2022-11-18T03:02:18;99531.78;;;8.90;100.00
66273;BME280;58450;52.150;4.466;2022-11-18T03:04:48;99535.69;;;8.94;100.00
66273;BME280;58450;52.150;4.466;2022-11-18T03:07:24;99536.75;;;8.93;100.00
66273;BME280;58450;52.150;4.466;2022-11-18T03:09:57;99540.03;;;9.02;100.00
66273;BME280;58450;52.150;4.466;2022-11-18T03:12:31;99541.91;;;8.95;100.00
66273;BME280;58450;52.150;4.466;2022-11-18T03:15:15;99543.56;;;8.96;100.00
66273;BME280;58450;52.150;4.466;2022-11-18T03:17:55;99542.09;;;8.93;100.00
66273;BME280;58450;52.150;4.466;2022-11-18T03:20:32;99545.63;;;8.94;100.00
66273;BME280;58450;52.150;4.466;2022-11-18T03:23:07;99546.25;;;8.82;100.00
66273;BME280;58450;52.150;4.466;2022-11-18T03:25:43;99558.22;;;8.86;100.00
66273;BME280;58450;52.150;4.466;2022-11-18T03:28:19;99554.28;;;8.89;100.00
66273;BME280;58450;52.150;4.466;2022-11-18T03:30:57;99559.47;;;8.91;100.00
66273;BME280;58450;52.150;4.466;2022-11-18T03:33:32;99565.44;;;8.93;100.00
66273;BME280;58450;52.150;4.466;2022-11-18T03:36:06;99563.38;;;8.95;100.00
66273;BME280;58450;52.150;4.466;2022-11-18T03:38:43;99562.75;;;8.99;100.00
66273;BME280;58450;52.150;4.466;2022-11-18T03:41:16;99567.28;;;9.06;100.00
66273;BME280;58450;52.150;4.466;2022-11-18T03:43:48;99567.69;;;9.09;100.00
66273;BME280;58450;52.150;4.466;2022-11-18T03:46:27;99569.34;;;9.10;100.00
66273;BME280;58450;52.150;4.466;2022-11-18T03:49:00;99568.13;;;9.06;100.00
66273;BME280;58450;52.150;4.466;2022-11-18T03:51:33;99584.63;;;9.10;100.00
66273;BME280;58450;52.150;4.466;2022-11-18T03:54:09;99591.84;;;9.16;100.00
66273;BME280;58450;52.150;4.466;2022-11-18T03:56:42;99592.88;;;9.15;100.00
66273;BME280;58450;52.150;4.466;2022-11-18T03:59:20;99598.84;;;9.24;100.00
66273;BME280;58450;52.150;4.466;2022-11-18T04:01:58;99596.78;;;9.26;100.00
66273;BME280;58450;52.150;4.466;2022-11-18T04:04:30;99597.81;;;9.25;100.00
66273;BME280;58450;52.150;4.466;2022-11-18T04:07:01;99592.63;;;9.30;100.00
66273;BME280;58450;52.150;4.466;2022-11-18T04:09:40;99602.31;;;9.31;100.00
66273;BME280;58450;52.150;4.466;2022-11-18T04:12:16;99601.50;;;9.30;100.00
66273;BME280;58450;52.150;4.466;2022-11-18T04:14:47;99599.88;;;9.23;100.00
66273;BME280;58450;52.150;4.466;2022-11-18T04:17:23;99604.41;;;9.29;100.00
66273;BME280;58450;52.150;4.466;2022-11-18T04:19:54;99602.34;;;9.24;100.00
66273;BME280;58450;52.150;4.466;2022-11-18T04:22:22;99607.72;;;9.24;100.00
66273;BME280;58450;52.150;4.466;2022-11-18T04:24:49;99619.31;;;9.11;100.00
66273;BME280;58450;52.150;4.466;2022-11-18T04:27:17;99625.91;;;9.15;100.00
66273;BME280;58450;52.150;4.466;2022-11-18T04:29:44;99621.97;;;9.18;100.00
66273;BME280;58450;52.150;4.466;2022-11-18T04:32:11;99635.41;;;9.25;100.00
66273;BME280;58450;52.150;4.466;2022-11-18T04:34:40;99644.50;;;9.24;100.00
66273;BME280;58450;52.150;4.466;2022-11-18T04:37:08;99646.97;;;9.25;100.00
66273;BME280;58450;52.150;4.466;2022-11-18T04:39:35;99643.66;;;9.23;100.00
66273;BME280;58450;52.150;4.466;2022-11-18T04:42:03;99648.38;;;9.28;100.00
66273;BME280;58450;52.150;4.466;2022-11-18T04:44:32;99663.28;;;9.24;100.00
66273;BME280;58450;52.150;4.466;2022-11-18T04:47:02;99651.06;;;9.28;100.00
66273;BME280;58450;52.150;4.466;2022-11-18T04:49:31;99654.63;;;9.22;100.00
66273;BME280;58450;52.150;4.466;2022-11-18T04:52:01;99657.72;;;9.19;100.00
66273;BME280;58450;52.150;4.466;2022-11-18T04:54:29;99669.47;;;9.24;100.00
66273;BME280;58450;52.150;4.466;2022-11-18T04:56:57;99661.22;;;9.26;100.00
66273;BME280;58450;52.150;4.466;2022-11-18T04:59:26;99667.41;;;9.26;100.00
66273;BME280;58450;52.150;4.466;2022-11-18T05:01:55;99667.41;;;9.20;100.00
66273;BME280;58450;52.150;4.466;2022-11-18T05:04:27;99668.81;;;9.29;100.00
66273;BME280;58450;52.150;4.466;2022-11-18T05:06:56;99661.22;;;9.12;100.00
66273;BME280;58450;52.150;4.466;2022-11-18T05:09:26;99673.00;;;9.25;100.00
66273;BME280;58450;52.150;4.466;2022-11-18T05:11:54;99683.28;;;9.28;100.00
66273;BME280;58450;52.150;4.466;2022-11-18T05:14:38;99677.94;;;9.21;100.00
66273;BME280;58450;52.150;4.466;2022-11-18T05:17:08;99681.66;;;9.20;100.00
66273;BME280;58450;52.150;4.466;2022-11-18T05:19:37;99678.56;;;9.23;100.00
66273;BME280;58450;52.150;4.466;2022-11-18T05:22:05;99696.94;;;9.20;100.00
66273;BME280;58450;52.150;4.466;2022-11-18T05:24:34;99695.91;;;9.27;100.00
66273;BME280;58450;52.150;4.466;2022-11-18T05:27:02;99694.88;;;9.22;100.00
66273;BME280;58450;52.150;4.466;2022-11-18T05:29:29;99694.03;;;9.21;100.00
66273;BME280;58450;52.150;4.466;2022-11-18T05:31:58;99707.69;;;9.20;100.00
66273;BME280;58450;52.150;4.466;2022-11-18T05:34:26;99701.06;;;9.15;100.00
66273;BME280;58450;52.150;4.466;2022-11-18T05:36:53;99693.63;;;9.11;100.00
66273;BME280;58450;52.150;4.466;2022-11-18T05:39:21;99701.47;;;9.06;100.00
66273;BME280;58450;52.150;4.466;2022-11-18T05:41:49;99697.16;;;9.11;100.00
66273;BME280;58450;52.150;4.466;2022-11-18T05:44:35;99708.06;;;8.96;100.00
66273;BME280;58450;52.150;4.466;2022-11-18T05:47:02;99704.34;;;8.97;100.00
66273;BME280;58450;52.150;4.466;2022-11-18T05:49:30;99705.16;;;8.91;100.00
66273;BME280;58450;52.150;4.466;2022-11-18T05:51:57;99711.16;;;8.86;100.00
66273;BME280;58450;52.150;4.466;2022-11-18T05:54:25;99708.47;;;8.86;100.00
66273;BME280;58450;52.150;4.466;2022-11-18T05:56:55;99712.38;;;8.91;100.00
66273;BME280;58450;52.150;4.466;2022-11-18T05:59:22;99717.53;;;8.85;100.00
66273;BME280;58450;52.150;4.466;2022-11-18T06:01:52;99718.34;;;8.86;100.00
66273;BME280;58450;52.150;4.466;2022-11-18T06:04:27;99726.41;;;8.86;100.00
66273;BME280;58450;52.150;4.466;2022-11-18T06:07:04;99738.38;;;8.77;100.00
66273;BME280;58450;52.150;4.466;2022-11-18T06:09:39;99732.97;;;8.70;100.00
66273;BME280;58450;52.150;4.466;2022-11-18T06:12:16;99744.34;;;8.72;100.00
66273;BME280;58450;52.150;4.466;2022-11-18T06:14:50;99746.38;;;8.63;100.00
66273;BME280;58450;52.150;4.466;2022-11-18T06:17:26;99754.38;;;8.56;100.00
66273;BME280;58450;52.150;4.466;2022-11-18T06:19:56;99761.00;;;8.61;100.00
66273;BME280;58450;52.150;4.466;2022-11-18T06:22:25;99762.22;;;8.51;100.00
66273;BME280;58450;52.150;4.466;2022-11-18T06:24:53;99765.47;;;8.47;100.00
66273;BME280;58450;52.150;4.466;2022-11-18T06:27:22;99773.16;;;8.50;100.00
66273;BME280;58450;52.150;4.466;2022-11-18T06:29:49;99773.91;;;8.43;100.00
66273;BME280;58450;52.150;4.466;2022-11-18T06:32:17;99770.78;;;8.40;100.00
66273;BME280;58450;52.150;4.466;2022-11-18T06:34:44;99779.47;;;8.42;100.00
66273;BME280;58450;52.150;4.466;2022-11-18T06:37:12;99776.19;;;8.47;100.00
66273;BME280;58450;52.150;4.466;2022-11-18T06:39:40;99788.75;;;8.46;100.00
66273;BME280;58450;52.150;4.466;2022-11-18T06:42:08;99786.28;;;8.45;100.00
66273;BME280;58450;52.150;4.466;2022-11-18T06:44:37;99787.19;;;8.52;100.00
66273;BME280;58450;52.150;4.466;2022-11-18T06:47:03;99795.22;;;8.52;100.00
66273;BME280;58450;52.150;4.466;2022-11-18T06:49:31;99798.31;;;8.49;100.00
66273;BME280;58450;52.150;4.466;2022-11-18T06:51:59;99804.66;;;8.48;100.00
66273;BME280;58450;52.150;4.466;2022-11-18T06:54:26;99810.19;;;8.39;100.00
66273;BME280;58450;52.150;4.466;2022-11-18T06:56:53;99815.19;;;8.49;100.00
66273;BME280;58450;52.150;4.466;2022-11-18T06:59:21;99816.47;;;8.53;100.00
66273;BME280;58450;52.150;4.466;2022-11-18T07:01:50;99820.56;;;8.49;100.00
66273;BME280;58450;52.150;4.466;2022-11-18T07:04:19;99823.81;;;8.45;100.00
66273;BME280;58450;52.150;4.466;2022-11-18T07:06:47;99824.25;;;8.48;100.00
66273;BME280;58450;52.150;4.466;2022-11-18T07:09:15;99831.28;;;8.49;100.00
66273;BME280;58450;52.150;4.466;2022-11-18T07:11:42;99829.59;;;8.48;100.00
66273;BME280;58450;52.150;4.466;2022-11-18T07:14:12;99834.59;;;8.51;100.00
66273;BME280;58450;52.150;4.466;2022-11-18T07:16:39;99838.31;;;8.50;100.00
66273;BME280;58450;52.150;4.466;2022-11-18T07:19:09;99850.94;;;8.56;100.00
66273;BME280;58450;52.150;4.466;2022-11-18T07:21:39;99839.81;;;8.60;100.00
66273;BME280;58450;52.150;4.466;2022-11-18T07:24:08;99844.75;;;8.56;100.00
66273;BME280;58450;52.150;4.466;2022-11-18T07:26:38;99854.44;;;8.57;100.00
66273;BME280;58450;52.150;4.466;2022-11-18T07:29:06;99847.91;;;8.73;100.00
66273;BME280;58450;52.150;4.466;2022-11-18T07:31:35;99857.63;;;8.74;100.00
66273;BME280;58450;52.150;4.466;2022-11-18T07:34:04;99862.56;;;8.70;100.00
66273;BME280;58450;52.150;4.466;2022-11-18T07:36:33;99862.16;;;8.74;100.00
66273;BME280;58450;52.150;4.466;2022-11-18T07:39:02;99864.41;;;8.70;100.00
66273;BME280;58450;52.150;4.466;2022-11-18T07:41:31;99873.69;;;8.67;100.00
66273;BME280;58450;52.150;4.466;2022-11-18T07:44:01;99879.09;;;8.74;100.00
66273;BME280;58450;52.150;4.466;2022-11-18T07:46:31;99882.22;;;8.78;100.00
66273;BME280;58450;52.150;4.466;2022-11-18T07:49:02;99892.75;;;8.86;100.00
66273;BME280;58450;52.150;4.466;2022-11-18T07:51:34;99893.81;;;8.92;100.00
66273;BME280;58450;52.150;4.466;2022-11-18T07:54:05;99888.06;;;8.95;100.00
66273;BME280;58450;52.150;4.466;2022-11-18T07:56:36;99895.06;;;8.96;100.00
66273;BME280;58450;52.150;4.466;2022-11-18T07:59:04;99899.59;;;8.95;100.00
66273;BME280;58450;52.150;4.466;2022-11-18T08:01:31;99898.41;;;9.05;100.00
66273;BME280;58450;52.150;4.466;2022-11-18T08:04:03;99902.78;;;9.12;100.00
66273;BME280;58450;52.150;4.466;2022-11-18T08:06:34;99913.34;;;9.21;100.00
66273;BME280;58450;52.150;4.466;2022-11-18T08:09:02;99921.19;;;9.22;100.00
66273;BME280;58450;52.150;4.466;2022-11-18T08:11:30;99923.47;;;9.19;100.00
66273;BME280;58450;52.150;4.466;2022-11-18T08:13:58;99927.19;;;9.31;100.00
66273;BME280;58450;52.150;4.466;2022-11-18T08:16:26;99927.63;;;9.35;100.00
66273;BME280;58450;52.150;4.466;2022-11-18T08:18:54;99932.03;;;9.49;100.00
66273;BME280;58450;52.150;4.466;2022-11-18T08:21:22;99936.16;;;9.52;100.00
66273;BME280;58450;52.150;4.466;2022-11-18T08:23:52;99941.16;;;9.75;100.00
66273;BME280;58450;52.150;4.466;2022-11-18T08:26:21;99945.53;;;10.30;100.00
66273;BME280;58450;52.150;4.466;2022-11-18T08:28:50;99944.50;;;10.64;100.00
66273;BME280;58450;52.150;4.466;2022-11-18T08:31:20;99943.47;;;11.24;100.00
66273;BME280;58450;52.150;4.466;2022-11-18T08:33:53;99939.44;;;11.47;100.00
66273;BME280;58450;52.150;4.466;2022-11-18T08:36:24;99947.53;;;11.47;100.00
66273;BME280;58450;52.150;4.466;2022-11-18T08:38:55;99946.78;;;11.27;100.00
66273;BME280;58450;52.150;4.466;2022-11-18T08:41:27;99957.34;;;11.28;100.00
66273;BME280;58450;52.150;4.466;2022-11-18T08:43:58;99951.88;;;10.96;100.00
66273;BME280;58450;52.150;4.466;2022-11-18T08:46:26;99953.59;;;10.77;100.00
66273;BME280;58450;52.150;4.466;2022-11-18T08:48:53;99964.53;;;10.82;100.00
66273;BME280;58450;52.150;4.466;2022-11-18T08:51:21;99955.44;;;10.63;100.00
66273;BME280;58450;52.150;4.466;2022-11-18T08:53:48;99958.59;;;10.60;100.00
66273;BME280;58450;52.150;4.466;2022-11-18T08:56:19;99964.34;;;10.77;100.00
66273;BME280;58450;52.150;4.466;2022-11-18T08:58:48;99966.03;;;10.58;100.00
66273;BME280;58450;52.150;4.466;2022-11-18T09:01:16;99965.22;;;10.51;100.00
66273;BME280;58450;52.150;4.466;2022-11-18T09:03:43;99963.16;;;10.53;100.00
66273;BME280;58450;52.150;4.466;2022-11-18T09:06:14;99964.97;;;10.39;100.00
66273;BME280;58450;52.150;4.466;2022-11-18T09:08:43;99972.03;;;10.33;100.00
66273;BME280;58450;52.150;4.466;2022-11-18T09:11:13;99978.88;;;10.42;100.00
66273;BME280;58450;52.150;4.466;2022-11-18T09:13:44;99971.19;;;10.32;100.00
66273;BME280;58450;52.150;4.466;2022-11-18T09:16:12;99980.53;;;10.50;100.00
66273;BME280;58450;52.150;4.466;2022-11-18T09:18:40;99987.72;;;10.29;100.00
66273;BME280;58450;52.150;4.466;2022-11-18T09:21:08;99992.69;;;10.32;100.00
66273;BME280;58450;52.150;4.466;2022-11-18T09:23:36;99994.41;;;10.54;100.00
66273;BME280;58450;52.150;4.466;2022-11-18T09:26:06;99989.00;;;10.60;100.00
66273;BME280;58450;52.150;4.466;2022-11-18T09:28:36;99995.00;;;10.49;100.00
66273;BME280;58450;52.150;4.466;2022-11-18T09:31:05;100005.56;;;10.44;100.00
66273;BME280;58450;52.150;4.466;2022-11-18T09:33:35;100006.81;;;10.48;100.00
66273;BME280;58450;52.150;4.466;2022-11-18T09:36:03;100004.50;;;10.65;100.00
66273;BME280;58450;52.150;4.466;2022-11-18T09:38:36;100004.09;;;10.61;100.00
66273;BME280;58450;52.150;4.466;2022-11-18T09:41:09;100003.66;;;10.71;100.00
66273;BME280;58450;52.150;4.466;2022-11-18T09:43:56;100014.66;;;10.83;100.00
66273;BME280;58450;52.150;4.466;2022-11-18T09:46:43;100016.53;;;10.76;100.00
66273;BME280;58450;52.150;4.466;2022-11-18T09:49:24;100013.41;;;10.72;100.00
66273;BME280;58450;52.150;4.466;2022-11-18T09:51:54;100026.84;;;10.86;100.00
66273;BME280;58450;52.150;4.466;2022-11-18T09:54:24;100022.72;;;10.97;100.00
66273;BME280;58450;52.150;4.466;2022-11-18T09:56:55;100033.91;;;10.93;100.00
66273;BME280;58450;52.150;4.466;2022-11-18T09:59:26;100039.69;;;10.90;100.00
66273;BME280;58450;52.150;4.466;2022-11-18T10:02:02;100038.88;;;10.83;100.00
66273;BME280;58450;52.150;4.466;2022-11-18T10:04:48;100043.84;;;10.86;100.00
66273;BME280;58450;52.150;4.466;2022-11-18T10:07:20;100051.50;;;10.89;100.00
66273;BME280;58450;52.150;4.466;2022-11-18T10:09:53;100053.78;;;10.92;100.00
66273;BME280;58450;52.150;4.466;2022-11-18T10:12:29;100055.66;;;10.85;100.00
66273;BME280;58450;52.150;4.466;2022-11-18T10:15:12;100057.09;;;10.81;100.00
66273;BME280;58450;52.150;4.466;2022-11-18T10:17:57;100061.66;;;10.74;100.00
66273;BME280;58450;52.150;4.466;2022-11-18T10:20:42;100069.72;;;10.81;100.00
66273;BME280;58450;52.150;4.466;2022-11-18T10:23:19;100054.59;;;10.73;100.00
66273;BME280;58450;52.150;4.466;2022-11-18T10:25:51;100064.53;;;10.72;100.00
66273;BME280;58450;52.150;4.466;2022-11-18T10:28:21;100069.50;;;10.55;100.00
66273;BME280;58450;52.150;4.466;2022-11-18T10:30:51;100069.09;;;10.72;100.00
66273;BME280;58450;52.150;4.466;2022-11-18T10:33:27;100077.56;;;10.55;100.00
66273;BME280;58450;52.150;4.466;2022-11-18T10:36:11;100079.03;;;10.58;100.00
66273;BME280;58450;52.150;4.466;2022-11-18T10:38:45;100081.72;;;10.64;100.00
66273;BME280;58450;52.150;4.466;2022-11-18T10:41:14;100075.31;;;10.79;100.00
66273;BME280;58450;52.150;4.466;2022-11-18T10:43:47;100085.47;;;10.90;100.00
66273;BME280;58450;52.150;4.466;2022-11-18T10:46:27;100074.91;;;10.96;100.00
66273;BME280;58450;52.150;4.466;2022-11-18T10:49:21;100088.72;;;11.06;100.00
66273;BME280;58450;52.150;4.466;2022-11-18T10:52:07;100088.72;;;11.06;100.00
66273;BME280;58450;52.150;4.466;2022-11-18T10:54:37;100091.63;;;11.11;100.00
66273;BME280;58450;52.150;4.466;2022-11-18T10:57:11;100096.78;;;11.33;100.00
66273;BME280;58450;52.150;4.466;2022-11-18T10:59:47;100100.50;;;11.32;100.00
66273;BME280;58450;52.150;4.466;2022-11-18T11:02:19;100099.28;;;11.21;100.00
66273;BME280;58450;52.150;4.466;2022-11-18T11:04:53;100102.59;;;11.23;100.00
66273;BME280;58450;52.150;4.466;2022-11-18T11:07:25;100104.09;;;10.99;100.00
66273;BME280;58450;52.150;4.466;2022-11-18T11:10:18;100098.84;;;11.31;100.00
66273;BME280;58450;52.150;4.466;2022-11-18T11:12:52;100093.84;;;11.41;100.00
66273;BME280;58450;52.150;4.466;2022-11-18T11:15:38;100094.69;;;11.42;100.00
66273;BME280;58450;52.150;4.466;2022-11-18T11:18:11;100099.44;;;11.46;100.00
66273;BME280;58450;52.150;4.466;2022-11-18T11:21:09;100104.25;;;11.31;100.00
66273;BME280;58450;52.150;4.466;2022-11-18T11:23:38;100102.41;;;11.18;100.00
66273;BME280;58450;52.150;4.466;2022-11-18T11:26:11;100104.69;;;11.21;100.00
66273;BME280;58450;52.150;4.466;2022-11-18T11:28:50;100110.69;;;11.23;100.00
66273;BME280;58450;52.150;4.466;2022-11-18T11:31:29;100119.56;;;11.23;100.00
66273;BME280;58450;52.150;4.466;2022-11-18T11:34:11;100114.41;;;11.22;100.00
66273;BME280;58450;52.150;4.466;2022-11-18T11:36:56;100113.16;;;11.31;100.00
66273;BME280;58450;52.150;4.466;2022-11-18T11:39:45;100118.34;;;11.26;100.00
66273;BME280;58450;52.150;4.466;2022-11-18T11:42:37;100119.16;;;11.27;100.00
66273;BME280;58450;52.150;4.466;2022-11-18T11:45:18;100119.38;;;11.25;100.00
66273;BME280;58450;52.150;4.466;2022-11-18T11:48:06;100121.47;;;11.09;100.00
66273;BME280;58450;52.150;4.466;2022-11-18T11:50:49;100124.56;;;11.06;100.00
66273;BME280;58450;52.150;4.466;2022-11-18T11:53:34;100126.63;;;11.24;100.00
66273;BME280;58450;52.150;4.466;2022-11-18T11:56:29;100123.31;;;11.22;100.00
66273;BME280;58450;52.150;4.466;2022-11-18T11:59:09;100121.66;;;11.28;100.00
66273;BME280;58450;52.150;4.466;2022-11-18T12:01:53;100118.34;;;11.26;100.00
66273;BME280;58450;52.150;4.466;2022-11-18T12:04:40;100123.06;;;11.44;100.00
66273;BME280;58450;52.150;4.466;2022-11-18T12:07:15;100123.91;;;11.45;100.00
66273;BME280;58450;52.150;4.466;2022-11-18T12:10:02;100126.13;;;11.61;100.00
66273;BME280;58450;52.150;4.466;2022-11-18T12:12:51;100135.06;;;11.55;100.00
66273;BME280;58450;52.150;4.466;2022-11-18T12:15:31;100131.13;;;11.58;100.00
66273;BME280;58450;52.150;4.466;2022-11-18T12:18:12;100131.50;;;11.61;100.00
66273;BME280;58450;52.150;4.466;2022-11-18T12:20:46;100133.19;;;11.49;100.00
66273;BME280;58450;52.150;4.466;2022-11-18T12:23:19;100132.19;;;11.43;100.00
66273;BME280;58450;52.150;4.466;2022-11-18T12:25:59;100140.69;;;11.40;100.00
66273;BME280;58450;52.150;4.466;2022-11-18T12:28:36;100130.75;;;11.41;100.00
66273;BME280;58450;52.150;4.466;2022-11-18T12:31:25;100137.19;;;11.40;100.00
66273;BME280;58450;52.150;4.466;2022-11-18T12:34:01;100140.09;;;11.31;100.00
66273;BME280;58450;52.150;4.466;2022-11-18T12:36:33;100138.00;;;11.47;100.00
66273;BME280;58450;52.150;4.466;2022-11-18T12:42:39;100145.47;;;11.45;100.00
66273;BME280;58450;52.150;4.466;2022-11-18T12:45:47;100145.47;;;11.31;100.00
66273;BME280;58450;52.150;4.466;2022-11-18T12:48:34;100146.31;;;11.32;100.00
66273;BME280;58450;52.150;4.466;2022-11-18T12:54:28;100152.72;;;11.44;100.00
66273;BME280;58450;52.150;4.466;2022-11-18T12:57:00;100156.00;;;11.53;100.00
66273;BME280;58450;52.150;4.466;2022-11-18T12:59:33;100160.16;;;11.56;100.00
66273;BME280;58450;52.150;4.466;2022-11-18T13:02:20;100158.69;;;11.60;100.00
66273;BME280;58450;52.150;4.466;2022-11-18T13:05:07;100162.84;;;11.56;100.00
66273;BME280;58450;52.150;4.466;2022-11-18T13:07:44;100161.38;;;11.53;100.00
66273;BME280;58450;52.150;4.466;2022-11-18T13:10:34;100169.31;;;11.28;100.00
66273;BME280;58450;52.150;4.466;2022-11-18T13:13:12;100170.75;;;11.30;100.00
66273;BME280;58450;52.150;4.466;2022-11-18T13:15:51;100172.84;;;11.28;100.00
66273;BME280;58450;52.150;4.466;2022-11-18T13:18:47;100179.66;;;11.17;100.00
66273;BME280;58450;52.150;4.466;2022-11-18T13:21:22;100182.56;;;11.22;100.00
66273;BME280;58450;52.150;4.466;2022-11-18T13:24:13;100181.72;;;11.15;100.00
66273;BME280;58450;52.150;4.466;2022-11-18T13:26:44;100181.75;;;11.22;100.00
66273;BME280;58450;52.150;4.466;2022-11-18T13:29:25;100187.34;;;11.14;100.00
66273;BME280;58450;52.150;4.466;2022-11-18T13:32:15;100193.97;;;11.24;100.00
66273;BME280;58450;52.150;4.466;2022-11-18T13:34:49;100197.28;;;11.06;100.00